sensor_id;sensor_type;location;lat;lon;timestamp;pressure;altitude;pressure_sealevel;temperature;humidity
42511;BME280;28141;51.120;17.114;2022-12-29T00:02:58;101352.75;;;25.31;28.05
42511;BME280;28141;51.120;17.114;2022-12-29T00:06:01;101347.20;;;25.31;27.99
42511;BME280;28141;51.120;17.114;2022-12-29T00:09:05;101346.95;;;25.32;28.44
42511;BME280;28141;51.120;17.114;2022-12-29T00:12:09;101350.12;;;25.36;28.31
42511;BME280;28141;51.120;17.114;2022-12-29T00:15:12;101340.33;;;25.33;28.34
42511;BME280;28141;51.120;17.114;2022-12-29T00:18:27;101332.32;;;25.25;28.35
42511;BME280;28141;51.120;17.114;2022-12-29T00:21:31;101324.63;;;25.27;28.48
42511;BME280;28141;51.120;17.114;2022-12-29T00:25:13;101332.94;;;25.27;28.32
42511;BME280;28141;51.120;17.114;2022-12-29T00:28:28;101322.75;;;25.21;28.40
42511;BME280;28141;51.120;17.114;2022-12-29T00:31:44;101330.47;;;25.19;28.12
42511;BME280;28141;51.120;17.114;2022-12-29T00:34:59;101327.91;;;25.18;28.46
42511;BME280;28141;51.120;17.114;2022-12-29T00:38:40;101314.91;;;25.18;28.44
42511;BME280;28141;51.120;17.114;2022-12-29T00:42:04;101300.20;;;25.18;28.93
42511;BME280;28141;51.120;17.114;2022-12-29T00:45:19;101296.95;;;25.21;28.47
42511;BME280;28141;51.120;17.114;2022-12-29T00:48:23;101290.72;;;25.25;28.38
42511;BME280;28141;51.120;17.114;2022-12-29T00:52:12;101290.50;;;25.27;28.38
42511;BME280;28141;51.120;17.114;2022-12-29T00:55:15;101279.31;;;25.33;28.71
42511;BME280;28141;51.120;17.114;2022-12-29T00:58:18;101282.32;;;25.32;28.18
42511;BME280;28141;51.120;17.114;2022-12-29T01:01:22;101278.87;;;25.36;28.20
42511;BME280;28141;51.120;17.114;2022-12-29T01:04:26;101277.40;;;25.34;28.11
42511;BME280;28141;51.120;17.114;2022-12-29T01:07:29;101272.64;;;25.41;28.26
42511;BME280;28141;51.120;17.114;2022-12-29T01:10:33;101272.38;;;25.42;28.30
42511;BME280;28141;51.120;17.114;2022-12-29T01:13:37;101267.68;;;25.43;28.32
42511;BME280;28141;51.120;17.114;2022-12-29T01:16:47;101265.98;;;25.42;28.29
42511;BME280;28141;51.120;17.114;2022-12-29T01:20:17;101276.26;;;25.41;28.17
42511;BME280;28141;51.120;17.114;2022-12-29T01:23:20;101261.77;;;25.39;28.05
42511;BME280;28141;51.120;17.114;2022-12-29T01:26:23;101267.68;;;25.43;28.26
42511;BME280;28141;51.120;17.114;2022-12-29T01:29:26;101254.43;;;25.45;28.13
42511;BME280;28141;51.120;17.114;2022-12-29T01:32:30;101254.08;;;25.41;27.99
42511;BME280;28141;51.120;17.114;2022-12-29T01:35:33;101250.81;;;25.44;28.33
42511;BME280;28141;51.120;17.114;2022-12-29T01:38:37;101250.20;;;25.42;28.40
42511;BME280;28141;51.120;17.114;2022-12-29T01:41:41;101247.19;;;25.44;28.05
42511;BME280;28141;51.120;17.114;2022-12-29T01:44:51;101247.67;;;25.41;28.33
42511;BME280;28141;51.120;17.114;2022-12-29T01:48:00;101239.94;;;25.43;28.38
42511;BME280;28141;51.120;17.114;2022-12-29T01:51:35;101248.53;;;25.41;28.20
42511;BME280;28141;51.120;17.114;2022-12-29T01:54:45;101239.72;;;25.44;28.24
42511;BME280;28141;51.120;17.114;2022-12-29T01:57:53;101225.48;;;25.41;28.24
42511;BME280;28141;51.120;17.114;2022-12-29T02:00:57;101223.92;;;25.45;28.06
42511;BME280;28141;51.120;17.114;2022-12-29T02:04:02;101222.45;;;25.42;28.07
42511;BME280;28141;51.120;17.114;2022-12-29T02:07:11;101215.84;;;25.43;28.24
42511;BME280;28141;51.120;17.114;2022-12-29T02:10:20;101222.71;;;25.41;28.17
42511;BME280;28141;51.120;17.114;2022-12-29T02:13:50;101206.92;;;25.41;28.21
42511;BME280;28141;51.120;17.114;2022-12-29T02:17:08;101210.78;;;25.40;27.98
42511;BME280;28141;51.120;17.114;2022-12-29T02:37:12;101203.82;;;25.31;28.26
42511;BME280;28141;51.120;17.114;2022-12-29T02:40:51;101210.21;;;25.32;28.33
42511;BME280;28141;51.120;17.114;2022-12-29T02:44:10;101208.61;;;25.24;28.61
42511;BME280;28141;51.120;17.114;2022-12-29T02:47:47;101196.67;;;25.24;28.85
42511;BME280;28141;51.120;17.114;2022-12-29T02:50:38;101191.13;;;25.24;28.14
42511;BME280;28141;51.120;17.114;2022-12-29T02:54:09;101190.21;;;25.30;28.39
42511;BME280;28141;51.120;17.114;2022-12-29T02:57:32;101190.90;;;25.25;28.25
42511;BME280;28141;51.120;17.114;2022-12-29T03:18:06;101172.05;;;24.97;28.69
42511;BME280;28141;51.120;17.114;2022-12-29T03:24:40;101168.98;;;25.05;28.90
42511;BME280;28141;51.120;17.114;2022-12-29T03:27:48;101165.66;;;25.15;28.58
42511;BME280;28141;51.120;17.114;2022-12-29T03:31:20;101165.20;;;25.18;28.54
42511;BME280;28141;51.120;17.114;2022-12-29T03:34:26;101177.36;;;25.17;28.36
42511;BME280;28141;51.120;17.114;2022-12-29T03:37:36;101186.05;;;25.21;28.34
42511;BME280;28141;51.120;17.114;2022-12-29T03:40:44;101187.38;;;25.18;28.32
42511;BME280;28141;51.120;17.114;2022-12-29T03:43:48;101180.14;;;25.17;28.22
42511;BME280;28141;51.120;17.114;2022-12-29T03:46:51;101177.49;;;25.22;28.48
42511;BME280;28141;51.120;17.114;2022-12-29T03:49:55;101159.55;;;25.25;28.63
42511;BME280;28141;51.120;17.114;2022-12-29T03:52:58;101163.80;;;25.27;28.11
42511;BME280;28141;51.120;17.114;2022-12-29T03:56:01;101154.40;;;25.28;28.49
42511;BME280;28141;51.120;17.114;2022-12-29T03:59:31;101173.09;;;25.33;28.38
42511;BME280;28141;51.120;17.114;2022-12-29T04:02:34;101172.01;;;25.34;28.30
42511;BME280;28141;51.120;17.114;2022-12-29T04:05:37;101173.70;;;25.35;28.41
42511;BME280;28141;51.120;17.114;2022-12-29T04:08:40;101175.02;;;25.32;28.49
42511;BME280;28141;51.120;17.114;2022-12-29T04:11:44;101159.00;;;25.34;28.30
42511;BME280;28141;51.120;17.114;2022-12-29T04:14:47;101159.00;;;25.34;28.34
42511;BME280;28141;51.120;17.114;2022-12-29T04:17:50;101150.45;;;25.36;28.03
42511;BME280;28141;51.120;17.114;2022-12-29T04:20:54;101156.38;;;25.39;28.13
42511;BME280;28141;51.120;17.114;2022-12-29T04:24:04;101147.84;;;25.41;27.96
42511;BME280;28141;51.120;17.114;2022-12-29T04:27:09;101146.02;;;25.46;27.78
42511;BME280;28141;51.120;17.114;2022-12-29T04:30:42;101147.26;;;25.51;27.81
42511;BME280;28141;51.120;17.114;2022-12-29T04:33:45;101132.78;;;25.49;27.35
42511;BME280;28141;51.120;17.114;2022-12-29T04:36:49;101125.07;;;25.51;27.32
42511;BME280;28141;51.120;17.114;2022-12-29T04:39:52;101126.27;;;25.55;27.96
42511;BME280;28141;51.120;17.114;2022-12-29T04:42:56;101139.06;;;25.56;27.49
42511;BME280;28141;51.120;17.114;2022-12-29T04:45:59;101127.12;;;25.55;27.66
42511;BME280;28141;51.120;17.114;2022-12-29T04:49:02;101127.12;;;25.55;27.71
42511;BME280;28141;51.120;17.114;2022-12-29T04:52:11;101134.75;;;25.60;27.60
42511;BME280;28141;51.120;17.114;2022-12-29T04:55:14;101132.21;;;25.58;27.38
42511;BME280;28141;51.120;17.114;2022-12-29T04:58:19;101133.47;;;25.62;27.54
42511;BME280;28141;51.120;17.114;2022-12-29T05:01:51;101131.27;;;25.64;27.39
42511;BME280;28141;51.120;17.114;2022-12-29T05:04:54;101128.89;;;25.68;27.70
42511;BME280;28141;51.120;17.114;2022-12-29T05:07:58;101128.42;;;25.71;27.62
42511;BME280;28141;51.120;17.114;2022-12-29T05:11:01;101125.66;;;25.71;27.40
42511;BME280;28141;51.120;17.114;2022-12-29T05:14:04;101117.09;;;25.72;27.15
42511;BME280;28141;51.120;17.114;2022-12-29T05:17:08;101108.53;;;25.74;27.39
42511;BME280;28141;51.120;17.114;2022-12-29T05:20:12;101116.59;;;25.75;26.99
42511;BME280;28141;51.120;17.114;2022-12-29T05:23:16;101103.80;;;25.74;27.07
42511;BME280;28141;51.120;17.114;2022-12-29T05:26:19;101105.50;;;25.75;27.47
42511;BME280;28141;51.120;17.114;2022-12-29T05:29:23;101098.40;;;25.79;26.97
42511;BME280;28141;51.120;17.114;2022-12-29T05:32:26;101099.24;;;25.80;27.24
42511;BME280;28141;51.120;17.114;2022-12-29T05:36:06;101094.77;;;25.79;27.05
42511;BME280;28141;51.120;17.114;2022-12-29T05:39:10;101088.85;;;25.75;27.16
42511;BME280;28141;51.120;17.114;2022-12-29T05:42:13;101098.02;;;25.76;27.08
42511;BME280;28141;51.120;17.114;2022-12-29T05:45:17;101085.84;;;25.77;27.05
42511;BME280;28141;51.120;17.114;2022-12-29T05:48:20;101089.12;;;25.74;27.20
42511;BME280;28141;51.120;17.114;2022-12-29T05:51:23;101081.61;;;25.74;27.02
42511;BME280;28141;51.120;17.114;2022-12-29T05:54:27;101085.37;;;25.80;27.11
42511;BME280;28141;51.120;17.114;2022-12-29T05:57:31;101088.85;;;25.75;26.55
42511;BME280;28141;51.120;17.114;2022-12-29T06:00:34;101094.16;;;25.77;27.00
42511;BME280;28141;51.120;17.114;2022-12-29T06:03:37;101096.71;;;25.78;27.00
42511;BME280;28141;51.120;17.114;2022-12-29T06:07:07;101096.94;;;25.77;26.85
42511;BME280;28141;51.120;17.114;2022-12-29T06:10:11;101087.54;;;25.78;26.95
42511;BME280;28141;51.120;17.114;2022-12-29T06:13:14;101089.93;;;25.74;26.52
42511;BME280;28141;51.120;17.114;2022-12-29T06:16:17;101086.45;;;25.79;26.70
42511;BME280;28141;51.120;17.114;2022-12-29T06:19:21;101093.55;;;25.75;26.74
42511;BME280;28141;51.120;17.114;2022-12-29T06:22:25;101087.41;;;25.73;26.79
42511;BME280;28141;51.120;17.114;2022-12-29T06:25:28;101083.41;;;25.69;26.85
42511;BME280;28141;51.120;17.114;2022-12-29T06:28:34;101081.72;;;25.68;26.79
42511;BME280;28141;51.120;17.114;2022-12-29T06:31:38;101085.34;;;25.68;26.53
42511;BME280;28141;51.120;17.114;2022-12-29T06:34:41;101079.80;;;25.68;27.14
42511;BME280;28141;51.120;17.114;2022-12-29T06:37:45;101070.50;;;25.74;26.82
42511;BME280;28141;51.120;17.114;2022-12-29T06:41:14;101076.32;;;25.73;26.70
42511;BME280;28141;51.120;17.114;2022-12-29T06:44:18;101081.88;;;25.73;26.62
42511;BME280;28141;51.120;17.114;2022-12-29T06:47:21;101087.99;;;25.75;26.92
42511;BME280;28141;51.120;17.114;2022-12-29T06:50:25;101089.69;;;25.76;26.25
42511;BME280;28141;51.120;17.114;2022-12-29T06:53:28;101096.71;;;25.78;26.73
42511;BME280;28141;51.120;17.114;2022-12-29T06:56:31;101100.71;;;25.83;26.69
42511;BME280;28141;51.120;17.114;2022-12-29T06:59:35;101094.54;;;25.80;26.40
42511;BME280;28141;51.120;17.114;2022-12-29T07:02:38;101082.36;;;25.81;26.64
42511;BME280;28141;51.120;17.114;2022-12-29T07:05:42;101093.22;;;25.83;26.42
42511;BME280;28141;51.120;17.114;2022-12-29T07:08:45;101104.56;;;25.81;26.10
42511;BME280;28141;51.120;17.114;2022-12-29T07:11:49;101102.02;;;25.80;26.34
42511;BME280;28141;51.120;17.114;2022-12-29T07:15:21;101098.16;;;25.81;26.49
42511;BME280;28141;51.120;17.114;2022-12-29T07:18:24;101098.63;;;25.78;26.69
42511;BME280;28141;51.120;17.114;2022-12-29T07:21:27;101099.01;;;25.81;26.45
42511;BME280;28141;51.120;17.114;2022-12-29T07:24:31;101096.00;;;25.83;26.54
42511;BME280;28141;51.120;17.114;2022-12-29T07:27:34;101099.97;;;25.87;26.26
42511;BME280;28141;51.120;17.114;2022-12-29T07:30:37;101092.15;;;25.84;26.13
42511;BME280;28141;51.120;17.114;2022-12-29T07:33:41;101096.58;;;25.85;26.37
42511;BME280;28141;51.120;17.114;2022-12-29T07:36:46;101103.98;;;25.91;26.53
42511;BME280;28141;51.120;17.114;2022-12-29T07:39:49;101110.37;;;25.92;26.40
42511;BME280;28141;51.120;17.114;2022-12-29T07:42:53;101102.41;;;25.95;26.47
42511;BME280;28141;51.120;17.114;2022-12-29T07:45:59;101105.20;;;25.95;26.52
42511;BME280;28141;51.120;17.114;2022-12-29T07:49:29;101097.45;;;25.97;26.44
42511;BME280;28141;51.120;17.114;2022-12-29T07:52:32;101099.14;;;25.98;26.27
42511;BME280;28141;51.120;17.114;2022-12-29T07:55:35;101100.84;;;25.99;26.72
42511;BME280;28141;51.120;17.114;2022-12-29T07:58:39;101094.35;;;26.05;26.54
42511;BME280;28141;51.120;17.114;2022-12-29T08:01:42;101108.80;;;26.07;26.44
42511;BME280;28141;51.120;17.114;2022-12-29T08:04:45;101101.59;;;26.06;26.21
42511;BME280;28141;51.120;17.114;2022-12-29T08:07:49;101100.23;;;26.09;26.32
42511;BME280;28141;51.120;17.114;2022-12-29T08:10:52;101103.62;;;26.11;26.29
42511;BME280;28141;51.120;17.114;2022-12-29T08:13:56;101104.62;;;26.16;26.27
42511;BME280;28141;51.120;17.114;2022-12-29T08:16:59;101107.38;;;26.16;25.51
42511;BME280;28141;51.120;17.114;2022-12-29T08:20:04;101109.20;;;26.23;26.10
42511;BME280;28141;51.120;17.114;2022-12-29T08:23:36;101092.39;;;26.17;26.18
42511;BME280;28141;51.120;17.114;2022-12-29T08:26:39;101115.76;;;26.28;26.22
42511;BME280;28141;51.120;17.114;2022-12-29T08:29:43;101116.71;;;26.34;26.12
42511;BME280;28141;51.120;17.114;2022-12-29T08:32:46;101117.09;;;26.37;26.12
42511;BME280;28141;51.120;17.114;2022-12-29T08:35:49;101119.12;;;26.42;26.18
42511;BME280;28141;51.120;17.114;2022-12-29T08:38:53;101122.87;;;26.47;26.20
42511;BME280;28141;51.120;17.114;2022-12-29T08:41:56;101117.09;;;26.49;26.01
42511;BME280;28141;51.120;17.114;2022-12-29T08:45:00;101112.71;;;26.53;25.93
42511;BME280;28141;51.120;17.114;2022-12-29T08:48:04;101111.37;;;26.56;25.96
42511;BME280;28141;51.120;17.114;2022-12-29T08:51:07;101107.89;;;26.60;26.32
42511;BME280;28141;51.120;17.114;2022-12-29T08:54:11;101120.19;;;26.64;25.96
42511;BME280;28141;51.120;17.114;2022-12-29T08:57:42;101126.83;;;26.63;25.90
42511;BME280;28141;51.120;17.114;2022-12-29T09:00:46;101125.27;;;26.67;25.92
42511;BME280;28141;51.120;17.114;2022-12-29T09:03:49;101122.25;;;26.69;25.69
42511;BME280;28141;51.120;17.114;2022-12-29T09:06:53;101122.01;;;26.70;25.82
42511;BME280;28141;51.120;17.114;2022-12-29T09:09:56;101126.57;;;26.76;25.98
42511;BME280;28141;51.120;17.114;2022-12-29T09:12:59;101124.77;;;26.82;25.86
42511;BME280;28141;51.120;17.114;2022-12-29T09:16:04;101123.17;;;26.86;25.60
42511;BME280;28141;51.120;17.114;2022-12-29T09:19:15;101123.30;;;26.91;26.00
42511;BME280;28141;51.120;17.114;2022-12-29T09:22:18;101114.75;;;26.93;25.82
42511;BME280;28141;51.120;17.114;2022-12-29T09:25:22;101115.92;;;26.97;26.00
42511;BME280;28141;51.120;17.114;2022-12-29T09:28:27;101113.02;;;27.03;25.97
42511;BME280;28141;51.120;17.114;2022-12-29T09:31:31;101118.67;;;27.08;26.12
42511;BME280;28141;51.120;17.114;2022-12-29T09:34:35;101121.45;;;27.08;25.76
42511;BME280;28141;51.120;17.114;2022-12-29T09:37:38;101126.77;;;27.10;25.58
42511;BME280;28141;51.120;17.114;2022-12-29T09:40:45;101105.13;;;27.12;25.68
42511;BME280;28141;51.120;17.114;2022-12-29T09:43:59;101112.71;;;27.16;25.34
42511;BME280;28141;51.120;17.114;2022-12-29T09:47:31;101117.35;;;27.11;25.74
42511;BME280;28141;51.120;17.114;2022-12-29T09:50:37;101115.73;;;27.15;25.37
42511;BME280;28141;51.120;17.114;2022-12-29T09:53:51;101114.65;;;27.16;25.47
42511;BME280;28141;51.120;17.114;2022-12-29T09:56:56;101103.28;;;27.17;25.34
42511;BME280;28141;51.120;17.114;2022-12-29T10:00:12;101100.86;;;27.21;25.39
42511;BME280;28141;51.120;17.114;2022-12-29T10:03:19;101089.25;;;27.24;26.14
42511;BME280;28141;51.120;17.114;2022-12-29T10:06:57;101093.20;;;27.28;25.56
42511;BME280;28141;51.120;17.114;2022-12-29T10:10:14;101075.91;;;27.26;25.41
42511;BME280;28141;51.120;17.114;2022-12-29T10:13:28;101074.83;;;27.27;25.38
42511;BME280;28141;51.120;17.114;2022-12-29T10:23:40;101068.09;;;27.23;25.59
42511;BME280;28141;51.120;17.114;2022-12-29T10:26:46;101074.83;;;27.27;25.40
42511;BME280;28141;51.120;17.114;2022-12-29T10:29:58;101062.23;;;27.36;25.59
42511;BME280;28141;51.120;17.114;2022-12-29T10:33:06;101063.39;;;27.40;25.82
42511;BME280;28141;51.120;17.114;2022-12-29T10:36:44;101065.08;;;27.41;25.57
42511;BME280;28141;51.120;17.114;2022-12-29T10:39:53;101054.63;;;27.48;25.55
42511;BME280;28141;51.120;17.114;2022-12-29T10:42:58;101054.14;;;27.51;26.01
42511;BME280;28141;51.120;17.114;2022-12-29T10:46:10;101055.84;;;27.52;26.14
42511;BME280;28141;51.120;17.114;2022-12-29T10:49:17;101054.63;;;27.48;25.24
42511;BME280;28141;51.120;17.114;2022-12-29T10:52:23;101051.29;;;27.46;26.04
42511;BME280;28141;51.120;17.114;2022-12-29T10:55:32;101050.44;;;27.46;26.09
42511;BME280;28141;51.120;17.114;2022-12-29T11:05:49;101050.74;;;27.33;26.76
42511;BME280;28141;51.120;17.114;2022-12-29T11:09:08;101053.36;;;27.39;26.03
42511;BME280;28141;51.120;17.114;2022-12-29T11:15:50;101041.98;;;27.41;26.13
42511;BME280;28141;51.120;17.114;2022-12-29T11:18:54;101039.13;;;27.52;26.18
42511;BME280;28141;51.120;17.114;2022-12-29T11:25:13;101042.16;;;27.51;25.87
42511;BME280;28141;51.120;17.114;2022-12-29T11:28:17;101031.48;;;27.59;25.82
42511;BME280;28141;51.120;17.114;2022-12-29T11:31:21;101030.00;;;27.69;26.34
42511;BME280;28141;51.120;17.114;2022-12-29T11:34:30;101032.26;;;27.72;26.36
42511;BME280;28141;51.120;17.114;2022-12-29T11:38:04;101031.66;;;27.70;25.83
42511;BME280;28141;51.120;17.114;2022-12-29T11:41:13;101017.23;;;27.73;25.45
42511;BME280;28141;51.120;17.114;2022-12-29T11:44:20;101016.14;;;27.74;25.55
42511;BME280;28141;51.120;17.114;2022-12-29T11:47:29;101024.26;;;27.75;26.12
42511;BME280;28141;51.120;17.114;2022-12-29T11:50:37;101020.13;;;27.78;25.49
42511;BME280;28141;51.120;17.114;2022-12-29T11:53:47;101020.19;;;27.83;25.72
42511;BME280;28141;51.120;17.114;2022-12-29T11:57:22;101011.09;;;27.87;25.45
42511;BME280;28141;51.120;17.114;2022-12-29T12:00:28;101007.46;;;27.87;25.64
42511;BME280;28141;51.120;17.114;2022-12-29T12:03:38;101006.12;;;27.89;25.74
42511;BME280;28141;51.120;17.114;2022-12-29T12:10:04;101004.09;;;27.85;25.89
42511;BME280;28141;51.120;17.114;2022-12-29T12:17:47;101008.55;;;27.86;25.70
42511;BME280;28141;51.120;17.114;2022-12-29T12:20:24;101004.58;;;27.82;24.84
42511;BME280;28141;51.120;17.114;2022-12-29T12:30:33;101004.77;;;27.75;25.38
42511;BME280;28141;51.120;17.114;2022-12-29T12:33:41;101000.12;;;27.81;25.91
42511;BME280;28141;51.120;17.114;2022-12-29T12:43:53;100997.52;;;27.74;25.76
42511;BME280;28141;51.120;17.114;2022-12-29T13:00:27;100996.66;;;27.74;25.30
42511;BME280;28141;51.120;17.114;2022-12-29T13:13:59;100999.20;;;27.75;25.84
42511;BME280;28141;51.120;17.114;2022-12-29T13:20:28;100989.57;;;27.83;25.51
42511;BME280;28141;51.120;17.114;2022-12-29T13:27:21;100990.32;;;27.95;26.12
42511;BME280;28141;51.120;17.114;2022-12-29T13:30:34;100981.38;;;27.93;25.43
42511;BME280;28141;51.120;17.114;2022-12-29T13:37:24;101003.88;;;28.08;25.70
42511;BME280;28141;51.120;17.114;2022-12-29T13:40:34;101010.05;;;28.10;25.11
42511;BME280;28141;51.120;17.114;2022-12-29T13:43:44;101019.43;;;28.21;25.97
42511;BME280;28141;51.120;17.114;2022-12-29T13:46:49;101018.13;;;28.28;25.93
42511;BME280;28141;51.120;17.114;2022-12-29T13:49:57;101023.26;;;28.37;25.98
42511;BME280;28141;51.120;17.114;2022-12-29T13:53:11;101018.62;;;28.42;25.45
42511;BME280;28141;51.120;17.114;2022-12-29T14:03:23;101033.30;;;28.38;25.43
42511;BME280;28141;51.120;17.114;2022-12-29T14:06:29;101033.64;;;28.41;25.76
42511;BME280;28141;51.120;17.114;2022-12-29T14:13:20;101045.80;;;28.35;25.53
42511;BME280;28141;51.120;17.114;2022-12-29T14:16:33;101045.74;;;28.30;25.57
42511;BME280;28141;51.120;17.114;2022-12-29T14:19:44;101044.80;;;28.24;25.68
42511;BME280;28141;51.120;17.114;2022-12-29T14:22:55;101048.63;;;28.18;25.56
42511;BME280;28141;51.120;17.114;2022-12-29T14:29:47;101061.71;;;28.01;25.81
42511;BME280;28141;51.120;17.114;2022-12-29T14:33:00;101049.64;;;27.95;25.83
42511;BME280;28141;51.120;17.114;2022-12-29T14:43:11;101040.92;;;27.58;26.19
42511;BME280;28141;51.120;17.114;2022-12-29T14:46:16;101043.71;;;27.58;25.81
42511;BME280;28141;51.120;17.114;2022-12-29T14:49:22;101039.27;;;27.57;25.85
42511;BME280;28141;51.120;17.114;2022-12-29T14:52:29;101038.67;;;27.55;25.83
42511;BME280;28141;51.120;17.114;2022-12-29T14:55:40;101036.25;;;27.47;26.03
42511;BME280;28141;51.120;17.114;2022-12-29T14:58:49;101037.76;;;27.38;26.28
42511;BME280;28141;51.120;17.114;2022-12-29T15:02:22;101035.23;;;27.37;26.30
42511;BME280;28141;51.120;17.114;2022-12-29T15:05:32;101035.74;;;27.34;26.44
42511;BME280;28141;51.120;17.114;2022-12-29T15:15:21;101038.48;;;27.17;26.41
42511;BME280;28141;51.120;17.114;2022-12-29T15:18:46;101054.56;;;27.15;26.47
42511;BME280;28141;51.120;17.114;2022-12-29T15:21:49;101046.74;;;27.12;27.01
42511;BME280;28141;51.120;17.114;2022-12-29T15:24:55;101061.98;;;27.09;26.49
42511;BME280;28141;51.120;17.114;2022-12-29T15:28:04;101065.76;;;27.03;26.91
42511;BME280;28141;51.120;17.114;2022-12-29T15:31:21;101065.16;;;27.01;27.00
42511;BME280;28141;51.120;17.114;2022-12-29T15:34:30;101071.33;;;26.92;26.83
42511;BME280;28141;51.120;17.114;2022-12-29T15:37:34;101070.47;;;26.91;26.26
42511;BME280;28141;51.120;17.114;2022-12-29T15:44:25;101067.13;;;26.77;26.83
42511;BME280;28141;51.120;17.114;2022-12-29T15:47:30;101061.56;;;26.77;26.75
42511;BME280;28141;51.120;17.114;2022-12-29T15:50:35;101070.63;;;26.73;26.58
42511;BME280;28141;51.120;17.114;2022-12-29T15:53:40;101068.37;;;26.70;26.41
42511;BME280;28141;51.120;17.114;2022-12-29T15:56:44;101070.06;;;26.71;26.92
42511;BME280;28141;51.120;17.114;2022-12-29T15:59:48;101068.60;;;26.68;27.25
42511;BME280;28141;51.120;17.114;2022-12-29T16:02:53;101069.09;;;26.65;26.83
42511;BME280;28141;51.120;17.114;2022-12-29T16:06:31;101072.61;;;26.61;26.71
42511;BME280;28141;51.120;17.114;2022-12-29T16:09:43;101071.88;;;26.53;26.79
42511;BME280;28141;51.120;17.114;2022-12-29T16:12:47;101061.25;;;26.50;26.70
42511;BME280;28141;51.120;17.114;2022-12-29T16:15:54;101065.39;;;26.48;27.01
42511;BME280;28141;51.120;17.114;2022-12-29T16:19:24;101061.99;;;26.46;26.93
42511;BME280;28141;51.120;17.114;2022-12-29T16:22:16;101065.86;;;26.45;26.83
42511;BME280;28141;51.120;17.114;2022-12-29T16:25:47;101069.62;;;26.39;26.83
42511;BME280;28141;51.120;17.114;2022-12-29T16:28:55;101062.95;;;26.40;26.99
42511;BME280;28141;51.120;17.114;2022-12-29T16:32:00;101064.07;;;26.39;26.74
42511;BME280;28141;51.120;17.114;2022-12-29T16:35:20;101063.80;;;26.40;27.13
42511;BME280;28141;51.120;17.114;2022-12-29T16:38:32;101066.95;;;26.32;26.76
42511;BME280;28141;51.120;17.114;2022-12-29T16:41:36;101062.73;;;26.30;26.66
42511;BME280;28141;51.120;17.114;2022-12-29T16:51:36;101064.38;;;26.19;27.13
42511;BME280;28141;51.120;17.114;2022-12-29T16:54:40;101066.69;;;26.22;26.82
42511;BME280;28141;51.120;17.114;2022-12-29T16:57:48;101073.47;;;26.26;27.08
42511;BME280;28141;51.120;17.114;2022-12-29T17:00:55;101075.39;;;26.26;26.90
42511;BME280;28141;51.120;17.114;2022-12-29T17:04:25;101080.34;;;26.24;26.87
42511;BME280;28141;51.120;17.114;2022-12-29T17:07:30;101076.95;;;26.22;26.71
42511;BME280;28141;51.120;17.114;2022-12-29T17:10:33;101072.48;;;26.21;27.00
42511;BME280;28141;51.120;17.114;2022-12-29T17:13:48;101083.34;;;26.10;26.99
42511;BME280;28141;51.120;17.114;2022-12-29T17:16:52;101081.78;;;26.14;26.90
42511;BME280;28141;51.120;17.114;2022-12-29T17:19:59;101097.13;;;26.17;26.76
42511;BME280;28141;51.120;17.114;2022-12-29T17:23:13;101095.17;;;26.17;26.89
42511;BME280;28141;51.120;17.114;2022-12-29T17:26:47;101097.84;;;26.12;26.93
42511;BME280;28141;51.120;17.114;2022-12-29T17:29:53;101084.80;;;26.13;26.87
42511;BME280;28141;51.120;17.114;2022-12-29T17:33:09;101086.96;;;26.11;27.51
42511;BME280;28141;51.120;17.114;2022-12-29T17:36:14;101094.57;;;26.04;26.99
42511;BME280;28141;51.120;17.114;2022-12-29T17:39:18;101086.48;;;26.02;27.05
42511;BME280;28141;51.120;17.114;2022-12-29T17:42:21;101083.71;;;26.02;27.03
42511;BME280;28141;51.120;17.114;2022-12-29T17:45:27;101085.87;;;26.00;27.11
42511;BME280;28141;51.120;17.114;2022-12-29T17:48:57;101093.36;;;26.00;27.16
42511;BME280;28141;51.120;17.114;2022-12-29T17:52:00;101101.57;;;25.95;27.47
42511;BME280;28141;51.120;17.114;2022-12-29T17:55:04;101107.70;;;25.97;27.12
42511;BME280;28141;51.120;17.114;2022-12-29T17:58:17;101105.20;;;25.95;27.58
42511;BME280;28141;51.120;17.114;2022-12-29T18:01:21;101106.13;;;25.89;27.15
42511;BME280;28141;51.120;17.114;2022-12-29T18:04:28;101103.73;;;25.93;27.10
42511;BME280;28141;51.120;17.114;2022-12-29T18:07:32;101111.69;;;25.89;27.57
42511;BME280;28141;51.120;17.114;2022-12-29T18:10:35;101110.60;;;25.90;27.60
42511;BME280;28141;51.120;17.114;2022-12-29T18:14:14;101117.97;;;25.85;27.41
42511;BME280;28141;51.120;17.114;2022-12-29T18:17:18;101125.91;;;25.81;27.42
42511;BME280;28141;51.120;17.114;2022-12-29T18:20:21;101126.30;;;25.85;27.28
42511;BME280;28141;51.120;17.114;2022-12-29T18:23:28;101128.22;;;25.84;27.17
42511;BME280;28141;51.120;17.114;2022-12-29T18:26:34;101116.51;;;25.82;27.68
42511;BME280;28141;51.120;17.114;2022-12-29T18:29:39;101116.51;;;25.82;27.70
42511;BME280;28141;51.120;17.114;2022-12-29T18:32:43;101127.00;;;25.80;27.46
42511;BME280;28141;51.120;17.114;2022-12-29T18:35:56;101121.05;;;25.76;27.21
42511;BME280;28141;51.120;17.114;2022-12-29T18:39:25;101124.41;;;25.67;27.65
42511;BME280;28141;51.120;17.114;2022-12-29T18:42:28;101125.04;;;25.69;28.03
42511;BME280;28141;51.120;17.114;2022-12-29T18:45:32;101116.71;;;25.69;27.69
42511;BME280;28141;51.120;17.114;2022-12-29T18:48:36;101123.23;;;25.74;27.60
42511;BME280;28141;51.120;17.114;2022-12-29T18:51:40;101115.75;;;25.75;27.62